Terminal Aerodrome Forecast
Issued by NWS

Home | Current Version | Previous Version | Text Only | Print | Product List | Glossary On
Versions: 1 2 3 4 5 6 7 8 9 10 11 12 13 14 15 16 17 18 19
000
FTUS42 KJAX 230520
TAFCRG
TAF
KCRG 230520Z 2306/2406 16008KT P6SM SCT020 BKN100 OVC200
     FM231400 16011KT P6SM VCSH SCT020 BKN035 OVC100
     FM231800 17012G18KT 6SM -SHRA VCTS BKN025CB OVC050
     FM240300 23008KT P6SM VCSH OVC020=

USA.gov is the U.S. government's official web portal to all federal, state and local government web resources and services.